createdAt,value
2022-12-01T07:02:52.985Z,2.52
2022-12-01T07:05:19.610Z,2.45
2022-12-01T07:07:46.334Z,2.41
2022-12-01T07:10:14.164Z,2.43
2022-12-01T07:12:40.816Z,2.42
2022-12-01T07:15:09.021Z,2.49
2022-12-01T07:17:35.988Z,2.51
2022-12-01T07:20:04.075Z,2.49
2022-12-01T07:22:32.802Z,2.46
2022-12-01T07:24:59.615Z,2.47
2022-12-01T07:27:29.704Z,2.52
2022-12-01T07:29:56.096Z,2.53
2022-12-01T07:32:22.596Z,2.51
2022-12-01T07:34:49.111Z,2.49
2022-12-01T07:37:15.622Z,2.42
2022-12-01T07:39:42.070Z,2.44
2022-12-01T07:42:08.620Z,2.46
2022-12-01T07:44:35.130Z,2.50
2022-12-01T07:47:01.575Z,2.53
2022-12-01T07:49:28.288Z,2.58
2022-12-01T07:51:54.712Z,2.69
2022-12-01T07:54:21.412Z,2.76
2022-12-01T07:56:47.896Z,2.83
2022-12-01T07:59:14.434Z,2.90
2022-12-01T08:01:44.484Z,2.96
2022-12-01T08:04:12.080Z,3.05
2022-12-01T08:06:38.594Z,3.11
2022-12-01T08:09:05.148Z,3.13
2022-12-01T08:11:31.682Z,3.22
2022-12-01T08:13:58.505Z,3.31
2022-12-01T08:16:25.458Z,3.40
2022-12-01T08:18:52.895Z,3.45
2022-12-01T08:21:21.689Z,3.53
2022-12-01T08:23:48.629Z,3.60
2022-12-01T08:26:17.953Z,3.65
2022-12-01T08:28:45.481Z,3.72
2022-12-01T08:31:22.752Z,3.77
2022-12-01T08:33:51.106Z,3.83
2022-12-01T08:36:18.306Z,3.88
2022-12-01T08:38:45.988Z,3.91
2022-12-01T08:41:13.631Z,3.96
2022-12-01T08:43:57.320Z,4.00
2022-12-01T08:46:26.232Z,4.05
2022-12-01T08:48:55.068Z,4.10
2022-12-01T08:51:21.622Z,4.13
2022-12-01T08:53:49.485Z,4.17
2022-12-01T08:56:17.513Z,4.21
2022-12-01T08:58:44.069Z,4.23
2022-12-01T09:01:13.055Z,4.27
2022-12-01T09:03:40.514Z,4.32
2022-12-01T09:06:13.489Z,4.36
2022-12-01T09:08:40.260Z,4.40
2022-12-01T09:11:11.682Z,4.40
2022-12-01T09:13:39.676Z,4.43
2022-12-01T09:16:10.320Z,4.46
2022-12-01T09:18:37.360Z,4.51
2022-12-01T09:21:19.001Z,4.51
2022-12-01T09:23:46.009Z,4.52
2022-12-01T09:26:14.018Z,4.52
2022-12-01T09:28:40.585Z,4.53
2022-12-01T09:31:09.287Z,4.55
2022-12-01T09:33:36.330Z,4.54
2022-12-01T09:36:04.059Z,4.54
2022-12-01T09:38:32.107Z,4.57
2022-12-01T09:41:05.864Z,4.59
2022-12-01T09:43:49.362Z,4.63
2022-12-01T09:46:20.458Z,4.65
2022-12-01T09:48:49.678Z,4.68
2022-12-01T09:51:19.129Z,4.72
2022-12-01T09:53:48.489Z,4.73
2022-12-01T09:56:22.793Z,4.77
2022-12-01T09:58:53.937Z,4.79
2022-12-01T10:01:27.398Z,4.83
2022-12-01T10:03:59.168Z,4.89
2022-12-01T10:06:44.470Z,4.88
2022-12-01T10:09:29.949Z,4.90
2022-12-01T10:12:20.604Z,4.97
2022-12-01T10:14:48.616Z,5.01
2022-12-01T10:17:33.099Z,5.11
2022-12-01T10:20:10.777Z,5.17
2022-12-01T10:23:18.211Z,5.35
2022-12-01T10:26:14.648Z,5.49
2022-12-01T10:28:50.486Z,5.46
2022-12-01T10:31:23.699Z,5.52
2022-12-01T10:33:59.598Z,5.53
2022-12-01T10:36:28.388Z,5.50
2022-12-01T10:38:55.183Z,5.52
2022-12-01T10:41:23.821Z,5.56
2022-12-01T10:44:00.722Z,5.53
2022-12-01T10:46:49.151Z,5.53
2022-12-01T10:49:17.525Z,5.56
2022-12-01T10:51:56.577Z,5.59
2022-12-01T10:54:32.588Z,5.64
2022-12-01T10:56:59.490Z,5.65
2022-12-01T10:59:46.696Z,5.58
2022-12-01T11:02:22.107Z,5.60
2022-12-01T11:05:01.169Z,5.55
2022-12-01T11:07:35.105Z,5.49
2022-12-01T11:10:19.535Z,5.50
2022-12-01T11:12:55.906Z,5.53
2022-12-01T11:15:38.410Z,5.57
2022-12-01T11:18:26.548Z,5.56
2022-12-01T11:21:27.902Z,5.56
2022-12-01T11:23:56.555Z,5.64
2022-12-01T12:22:55.431Z,5.76
2022-12-01T12:49:19.778Z,6.20
2022-12-01T13:20:23.923Z,6.03
2022-12-01T13:27:50.806Z,6.12
2022-12-01T13:34:26.186Z,6.17
2022-12-01T13:41:45.397Z,6.12
2022-12-01T13:48:00.282Z,5.93
2022-12-01T13:55:09.430Z,6.04
2022-12-01T14:02:08.503Z,5.97
2022-12-01T14:04:35.128Z,5.94
2022-12-01T14:12:02.701Z,5.85
2022-12-01T14:14:36.926Z,5.82
2022-12-01T14:17:04.524Z,5.81
2022-12-01T14:24:41.524Z,5.74
2022-12-01T14:27:11.771Z,5.69
2022-12-01T14:29:42.656Z,5.66
2022-12-01T14:32:22.425Z,5.64
2022-12-01T14:39:03.402Z,5.58
2022-12-01T14:45:18.735Z,5.52
2022-12-01T14:47:52.592Z,5.47
2022-12-01T14:50:51.937Z,5.44
2022-12-01T14:57:17.570Z,5.35
2022-12-01T15:03:48.260Z,5.21
2022-12-01T15:10:16.246Z,5.03
2022-12-01T15:12:42.778Z,4.98
2022-12-01T15:15:22.292Z,4.97
2022-12-01T15:18:57.684Z,4.89
2022-12-01T15:21:31.080Z,4.91
2022-12-01T15:24:03.352Z,4.85
2022-12-01T15:30:19.236Z,4.59
2022-12-01T15:36:42.280Z,4.48
2022-12-01T15:42:59.540Z,4.30
2022-12-01T15:53:07.332Z,4.07
2022-12-01T15:55:36.125Z,4.06
2022-12-01T15:58:07.628Z,4.00
2022-12-01T16:00:34.613Z,3.90
2022-12-01T16:03:48.013Z,3.80
2022-12-01T16:06:14.632Z,3.73
2022-12-01T16:09:30.136Z,3.63
2022-12-01T16:15:58.521Z,3.46
2022-12-01T16:22:22.028Z,3.29
2022-12-01T16:25:00.659Z,3.22
2022-12-01T16:27:30.022Z,3.19
2022-12-01T16:30:08.719Z,3.21
2022-12-01T16:36:43.706Z,3.27
2022-12-01T16:39:10.204Z,3.30
2022-12-01T16:41:41.151Z,3.29
2022-12-01T16:46:56.644Z,3.28
2022-12-01T16:49:24.623Z,3.18
2022-12-01T16:51:56.492Z,3.10
2022-12-01T16:54:23.550Z,3.03
2022-12-01T16:56:50.196Z,2.99
2022-12-01T16:59:16.675Z,2.92
2022-12-01T17:01:43.232Z,2.83
2022-12-01T17:04:09.792Z,2.76
2022-12-01T17:06:38.356Z,2.72
2022-12-01T17:09:05.740Z,2.64
2022-12-01T17:11:32.476Z,2.61
2022-12-01T17:13:59.081Z,2.57
2022-12-01T17:16:25.607Z,2.55
2022-12-01T17:18:52.194Z,2.46
2022-12-01T17:21:18.941Z,2.39
2022-12-01T17:23:45.428Z,2.34
2022-12-01T17:26:14.725Z,2.27
2022-12-01T17:28:41.940Z,2.21
2022-12-01T17:31:09.471Z,2.20
2022-12-01T17:33:36.655Z,2.14
2022-12-01T17:36:13.607Z,2.08
2022-12-01T17:38:41.997Z,2.07
2022-12-01T17:41:15.628Z,2.05
2022-12-01T17:43:42.490Z,1.97
2022-12-01T17:46:11.815Z,1.87
2022-12-01T17:48:41.691Z,1.86
2022-12-01T17:51:09.011Z,1.86
2022-12-01T17:53:36.674Z,1.81
2022-12-01T17:56:10.204Z,1.74
2022-12-01T17:58:37.395Z,1.75
2022-12-01T18:01:05.139Z,1.66
2022-12-01T18:03:32.363Z,1.58
2022-12-01T18:06:01.131Z,1.52
2022-12-01T18:08:29.708Z,1.56
2022-12-01T18:11:01.173Z,1.53
2022-12-01T18:13:27.774Z,1.48
2022-12-01T18:15:55.407Z,1.46
2022-12-01T18:18:21.943Z,1.36
2022-12-01T18:20:48.412Z,1.39
2022-12-01T18:23:14.868Z,1.37
2022-12-01T18:25:41.364Z,1.33
2022-12-01T18:28:10.816Z,1.30
2022-12-01T18:30:38.686Z,1.26
2022-12-01T18:33:06.551Z,1.19
2022-12-01T18:35:33.074Z,1.19
2022-12-01T18:37:59.493Z,1.15
2022-12-01T18:40:25.950Z,1.12
2022-12-01T18:42:52.477Z,1.10
2022-12-01T18:45:21.255Z,1.12
2022-12-01T18:47:48.102Z,1.11
2022-12-01T18:50:14.858Z,1.06
2022-12-01T18:52:41.448Z,1.04
2022-12-01T18:55:08.228Z,1.03
2022-12-01T18:57:34.827Z,1.01
2022-12-01T19:00:01.828Z,1.04
2022-12-01T19:02:28.459Z,1.05
2022-12-01T19:04:54.974Z,1.00
2022-12-01T19:07:25.240Z,1.00
2022-12-01T19:09:55.942Z,0.97
2022-12-01T19:12:22.406Z,1.02
2022-12-01T19:14:49.121Z,1.06
2022-12-01T19:17:15.748Z,1.07
2022-12-01T19:19:42.236Z,1.11
2022-12-01T19:22:08.742Z,1.15
2022-12-01T19:24:35.268Z,1.19
2022-12-01T19:27:01.792Z,1.26
2022-12-01T19:29:28.435Z,1.31
2022-12-01T19:31:55.399Z,1.33
2022-12-01T19:34:22.188Z,1.37
2022-12-01T19:36:49.848Z,1.47
2022-12-01T19:39:16.374Z,1.56
2022-12-01T19:41:43.063Z,1.63
2022-12-01T19:44:11.238Z,1.68
2022-12-01T19:46:37.782Z,1.75
2022-12-01T19:49:05.704Z,1.78
2022-12-01T19:51:35.298Z,1.85
2022-12-01T19:54:03.019Z,1.93
2022-12-01T19:56:29.548Z,1.98
2022-12-01T19:58:57.288Z,2.06
2022-12-01T20:01:23.916Z,2.13
2022-12-01T20:03:52.214Z,2.17
2022-12-01T20:10:53.925Z,2.29
2022-12-01T20:13:20.565Z,2.32
2022-12-01T20:15:46.989Z,2.40
2022-12-01T20:18:14.868Z,2.52
2022-12-01T20:20:41.528Z,2.59
2022-12-01T20:23:08.265Z,2.67
2022-12-01T20:25:34.813Z,2.73
2022-12-01T20:28:01.473Z,2.67
2022-12-01T20:30:27.969Z,2.61
2022-12-01T20:32:54.388Z,2.57
2022-12-01T20:35:20.889Z,2.58
2022-12-01T20:37:47.322Z,2.57
2022-12-01T20:40:13.817Z,2.60
2022-12-01T20:42:40.385Z,2.62
2022-12-01T20:45:07.515Z,2.67
2022-12-01T20:47:36.732Z,2.72
2022-12-01T20:50:05.742Z,2.79
2022-12-01T20:52:32.256Z,2.85
2022-12-01T20:54:58.850Z,2.87
2022-12-01T20:57:25.396Z,2.87
2022-12-01T20:59:52.124Z,2.89
2022-12-01T21:02:18.637Z,2.93
2022-12-01T21:05:12.389Z,2.98
2022-12-01T21:07:38.976Z,3.07
2022-12-01T21:10:06.463Z,3.09
2022-12-01T21:12:51.594Z,3.08
2022-12-01T21:15:25.434Z,3.09
2022-12-01T21:18:08.872Z,3.10
2022-12-01T21:20:44.076Z,3.14
2022-12-01T21:23:12.985Z,3.13
2022-12-01T21:25:40.729Z,3.16
2022-12-01T21:28:19.005Z,3.19
2022-12-01T21:30:49.763Z,3.19
2022-12-01T21:33:28.586Z,3.18
2022-12-01T21:35:55.857Z,3.17
2022-12-01T21:38:22.903Z,3.20
2022-12-01T21:40:49.553Z,3.20
2022-12-01T21:43:24.696Z,3.19
2022-12-01T21:45:58.045Z,3.19
2022-12-01T21:48:24.806Z,3.21
2022-12-01T21:50:59.566Z,3.22
2022-12-01T21:53:32.166Z,3.22
2022-12-01T21:55:58.661Z,3.22
2022-12-01T21:58:31.068Z,3.22
2022-12-01T22:00:58.969Z,3.22
2022-12-01T22:04:02.901Z,3.23
2022-12-01T22:06:38.675Z,3.27
2022-12-01T22:09:33.394Z,3.29
2022-12-01T22:12:13.761Z,3.31
2022-12-01T22:14:40.244Z,3.33
2022-12-01T22:17:06.678Z,3.34
2022-12-01T22:19:35.807Z,3.36
2022-12-01T22:22:09.517Z,3.39
2022-12-01T22:24:41.033Z,3.40
2022-12-01T22:27:38.172Z,3.49
2022-12-01T22:30:07.843Z,3.54
2022-12-01T22:32:59.243Z,3.58
2022-12-01T22:35:45.254Z,3.64
2022-12-01T22:38:37.799Z,3.66
2022-12-01T22:41:09.154Z,3.67
2022-12-01T22:43:47.429Z,3.69
2022-12-01T22:46:34.597Z,3.72
2022-12-01T22:49:03.249Z,3.74
2022-12-01T22:51:42.174Z,3.73
2022-12-01T22:54:14.658Z,3.73
2022-12-01T22:56:46.951Z,3.73
2022-12-01T22:59:13.758Z,3.71
2022-12-01T23:01:48.064Z,3.70
2022-12-01T23:04:39.938Z,3.72
2022-12-01T23:07:41.498Z,3.70
2022-12-01T23:10:17.220Z,3.69
2022-12-01T23:12:45.723Z,3.68
2022-12-01T23:15:17.909Z,3.67
2022-12-01T23:17:44.551Z,3.65
2022-12-01T23:20:11.108Z,3.67
2022-12-01T23:22:38.317Z,3.67
2022-12-01T23:25:16.881Z,3.65
2022-12-01T23:27:45.290Z,3.63
2022-12-01T23:30:13.079Z,3.62
2022-12-01T23:32:40.034Z,3.62
2022-12-01T23:35:18.869Z,3.61
2022-12-01T23:37:48.249Z,3.61
2022-12-01T23:40:31.349Z,3.59
2022-12-01T23:43:12.889Z,3.59
2022-12-01T23:45:39.383Z,3.59
2022-12-01T23:48:13.816Z,3.58
2022-12-01T23:50:40.348Z,3.58
2022-12-01T23:53:32.976Z,3.57
2022-12-01T23:56:11.398Z,3.57
2022-12-01T23:58:37.927Z,3.57
